Current | Forecast
Updated: 8:00 PM JST on February 22, 2018
Observed at Miyakojima, Japan
Temperature 64°F
Humidity 94%
Dew Point 63°F
Wind NNE at 18 mph
Pressure 30.01 in (Steady)
Conditions Light Rain Showers
Visibility 3.7 miles
UV 0 out of 16
Clouds (FEW) : 700 ft
Scattered Clouds (SCT) : 900 ft
Mostly Cloudy (BKN) : 1300 ft
Yesterday's Maximum 72°F
Yesterday's Minimum 66°F approx.
Yesterday's Cooling Degree Days 4 approx.
Sunrise7:08 AM JST
Sunset6:37 PM JST
Moon Rise11:15 AM JST
Moon Set
Moon PhaseMoon Phase
Waxing Crescent
Raw METARMETAR ROMY 221100Z 02016KT 6000 -SHRA FEW007 SCT009 BKN013 18/17 Q1016


Monday
. High: 82° F.
Tuesday
. High: 78° F.
Wednesday
. High: 78° F.
Thursday
. High: 80° F.
Friday
. High: 80° F.
Saturday
. High: 80° F.
Sunday
. High: 82° F.
Monday
. High: 82° F.

Units: English | Metric

Find the Weather for any City, State or Zipcode, or Country:

U.S. State List | Severe Weather | Tropical Storms | Ski Conditions
United States | Canada | Central America | South America | Asia | Europe | Australia | Africa | Islands

Weather Underground

© Copyright 2018
The Weather Company, LLC